createdAt,value
2022-08-03T00:01:36.770Z,22.20
2022-08-03T00:04:04.290Z,22.20
2022-08-03T00:06:36.491Z,22.10
2022-08-03T00:09:05.516Z,22.00
2022-08-03T00:11:32.669Z,22.10
2022-08-03T00:13:59.449Z,22.00
2022-08-03T00:16:26.237Z,21.90
2022-08-03T00:18:54.401Z,21.90
2022-08-03T00:21:21.175Z,22.00
2022-08-03T00:23:52.274Z,22.00
2022-08-03T00:26:19.566Z,21.90
2022-08-03T00:28:46.325Z,21.90
2022-08-03T00:31:13.258Z,22.00
2022-08-03T00:33:57.998Z,21.90
2022-08-03T00:36:28.259Z,21.90
2022-08-03T00:38:55.117Z,21.90
2022-08-03T00:41:22.298Z,21.80
2022-08-03T00:43:49.098Z,21.80
2022-08-03T00:46:20.857Z,21.70
2022-08-03T00:48:48.901Z,21.70
2022-08-03T00:51:15.869Z,21.70
2022-08-03T00:53:43.993Z,21.70
2022-08-03T00:56:13.632Z,21.70
2022-08-03T00:58:40.450Z,21.70
2022-08-03T01:01:07.489Z,21.70
2022-08-03T01:03:34.323Z,21.70
2022-08-03T01:06:07.703Z,21.70
2022-08-03T01:08:41.273Z,21.70
2022-08-03T01:11:16.431Z,21.60
2022-08-03T01:14:00.921Z,21.60
2022-08-03T01:16:37.306Z,21.70
2022-08-03T01:19:18.175Z,21.60
2022-08-03T01:22:10.740Z,21.70
2022-08-03T01:24:45.469Z,21.60
2022-08-03T01:27:18.728Z,21.50
2022-08-03T01:30:02.204Z,21.40
2022-08-03T01:32:59.006Z,21.30
2022-08-03T01:35:29.399Z,21.30
2022-08-03T01:38:00.785Z,20.90
2022-08-03T01:40:29.599Z,21.10
2022-08-03T01:42:59.405Z,21.20
2022-08-03T01:45:28.211Z,21.30
2022-08-03T01:48:02.539Z,21.30
2022-08-03T01:50:31.642Z,21.20
2022-08-03T01:52:59.489Z,21.20
2022-08-03T01:55:26.986Z,21.10
2022-08-03T01:58:05.247Z,21.10
2022-08-03T02:00:37.437Z,21.10
2022-08-03T02:03:05.948Z,21.20
2022-08-03T02:05:33.809Z,21.20
2022-08-03T02:08:01.745Z,21.10
2022-08-03T02:10:35.631Z,21.00
2022-08-03T02:13:07.075Z,21.10
2022-08-03T02:15:36.797Z,21.10
2022-08-03T02:18:06.976Z,21.10
2022-08-03T02:20:34.449Z,21.00
2022-08-03T02:23:01.307Z,21.00
2022-08-03T02:25:30.225Z,21.00
2022-08-03T02:28:01.073Z,20.90
2022-08-03T02:30:34.528Z,20.90
2022-08-03T02:33:04.144Z,20.90
2022-08-03T02:35:32.931Z,20.90
2022-08-03T02:38:02.803Z,20.80
2022-08-03T02:40:31.640Z,20.80
2022-08-03T02:43:02.531Z,20.80
2022-08-03T02:45:32.170Z,20.80
2022-08-03T02:48:03.795Z,20.90
2022-08-03T02:50:33.312Z,20.80
2022-08-03T02:53:02.508Z,20.70
2022-08-03T02:55:31.598Z,20.60
2022-08-03T02:58:01.418Z,20.60
2022-08-03T03:00:29.504Z,20.70
2022-08-03T03:02:58.132Z,20.70
2022-08-03T03:05:56.009Z,20.70
2022-08-03T03:08:17.646Z,20.60
2022-08-03T03:10:46.426Z,20.70
2022-08-03T03:13:15.073Z,20.60
2022-08-03T03:15:43.331Z,20.70
2022-08-03T03:18:11.131Z,20.60
2022-08-03T03:20:39.675Z,20.60
2022-08-03T03:23:07.212Z,20.50
2022-08-03T03:25:34.946Z,20.60
2022-08-03T03:28:02.806Z,20.40
2022-08-03T03:30:30.359Z,20.40
2022-08-03T03:32:58.242Z,20.40
2022-08-03T03:35:26.900Z,20.40
2022-08-03T03:37:55.274Z,20.50
2022-08-03T03:40:22.377Z,20.50
2022-08-03T03:42:50.027Z,20.50
2022-08-03T03:45:17.747Z,20.40
2022-08-03T03:47:44.549Z,20.30
2022-08-03T03:50:12.119Z,20.20
2022-08-03T03:52:39.603Z,20.30
2022-08-03T03:55:08.599Z,20.30
2022-08-03T03:57:35.382Z,20.30
2022-08-03T04:00:02.167Z,20.30
2022-08-03T04:02:29.026Z,20.30
2022-08-03T04:04:55.913Z,20.40
2022-08-03T04:07:24.243Z,20.30
2022-08-03T04:09:51.230Z,20.30
2022-08-03T04:12:22.760Z,20.30
2022-08-03T04:14:50.736Z,20.30
2022-08-03T04:17:19.523Z,20.20
2022-08-03T04:19:50.273Z,20.20
2022-08-03T04:22:19.859Z,20.30
2022-08-03T04:24:50.666Z,20.20
2022-08-03T04:27:21.236Z,20.10
2022-08-03T04:29:51.495Z,20.10
2022-08-03T04:32:19.196Z,20.10
2022-08-03T04:34:46.731Z,20.10
2022-08-03T04:37:33.018Z,19.90
2022-08-03T04:40:02.680Z,20.00
2022-08-03T04:42:33.567Z,20.00
2022-08-03T04:45:01.961Z,20.00
2022-08-03T04:47:32.013Z,20.10
2022-08-03T04:50:00.203Z,20.10
2022-08-03T04:52:27.382Z,20.10
2022-08-03T04:54:54.146Z,20.10
2022-08-03T04:57:23.201Z,20.10
2022-08-03T04:59:54.767Z,20.00
2022-08-03T05:02:24.902Z,20.00
2022-08-03T05:04:51.785Z,19.90
2022-08-03T05:07:24.149Z,20.10
2022-08-03T05:09:52.674Z,20.10
2022-08-03T05:12:19.903Z,19.90
2022-08-03T05:14:46.756Z,20.10
2022-08-03T05:17:14.942Z,20.20
2022-08-03T05:19:41.751Z,20.20
2022-08-03T05:22:08.503Z,20.30
2022-08-03T05:24:35.272Z,20.30
2022-08-03T05:27:02.138Z,20.30
2022-08-03T05:29:28.861Z,20.40
2022-08-03T05:31:55.946Z,20.40
2022-08-03T05:34:24.103Z,20.40
2022-08-03T05:36:50.903Z,20.50
2022-08-03T05:39:17.653Z,20.60
2022-08-03T05:41:44.408Z,20.60
2022-08-03T05:44:11.151Z,20.60
2022-08-03T05:46:37.876Z,20.70
2022-08-03T05:49:04.675Z,20.70
2022-08-03T05:51:32.778Z,20.70
2022-08-03T05:53:59.545Z,20.80
2022-08-03T05:56:26.299Z,20.80
2022-08-03T05:58:53.416Z,20.90
2022-08-03T06:01:21.260Z,20.90
2022-08-03T06:03:48.980Z,20.90
2022-08-03T06:06:16.476Z,20.80
2022-08-03T06:08:45.819Z,20.80
2022-08-03T06:11:12.982Z,20.90
2022-08-03T06:13:39.995Z,20.80
2022-08-03T06:16:06.994Z,20.80
2022-08-03T06:18:33.877Z,20.80
2022-08-03T06:21:14.651Z,20.80
2022-08-03T06:23:54.532Z,20.90
2022-08-03T06:26:24.476Z,21.00
2022-08-03T06:28:53.522Z,21.10
2022-08-03T06:31:21.702Z,21.10
2022-08-03T06:34:32.237Z,21.10
2022-08-03T06:36:35.218Z,21.10
2022-08-03T06:39:03.891Z,21.20
2022-08-03T06:41:30.741Z,21.30
2022-08-03T06:44:04.930Z,21.30
2022-08-03T06:46:31.694Z,21.40
2022-08-03T06:48:58.493Z,21.40
2022-08-03T06:52:05.314Z,21.50
2022-08-03T06:54:13.980Z,21.50
2022-08-03T06:56:40.714Z,21.60
2022-08-03T06:59:07.434Z,21.70
2022-08-03T07:01:34.253Z,21.80
2022-08-03T07:04:01.048Z,21.80
2022-08-03T07:06:27.810Z,21.80
2022-08-03T07:08:58.932Z,21.80
2022-08-03T07:11:27.637Z,22.00
2022-08-03T07:13:54.381Z,22.00
2022-08-03T07:16:21.150Z,22.00
2022-08-03T07:18:48.216Z,22.00
2022-08-03T07:42:42.021Z,22.50
2022-08-03T07:51:15.030Z,22.60
2022-08-03T07:53:47.151Z,22.70
2022-08-03T07:56:14.665Z,22.70
2022-08-03T07:58:42.968Z,22.70
2022-08-03T08:01:10.046Z,22.70
2022-08-03T08:03:53.218Z,22.80
2022-08-03T08:06:20.568Z,22.90
2022-08-03T08:08:47.566Z,22.90
2022-08-03T08:11:14.527Z,23.00
2022-08-03T08:13:42.922Z,23.00
2022-08-03T08:16:09.715Z,23.00
2022-08-03T08:18:36.517Z,23.10
2022-08-03T08:21:03.399Z,23.10
2022-08-03T08:23:41.735Z,23.10
2022-08-03T08:26:10.663Z,23.20
2022-08-03T08:28:37.546Z,23.20
2022-08-03T08:31:05.754Z,23.20
2022-08-03T08:33:48.359Z,23.30
2022-08-03T08:36:19.540Z,23.30
2022-08-03T08:38:46.479Z,23.40
2022-08-03T08:41:14.461Z,23.40
2022-08-03T08:43:41.819Z,23.40
2022-08-03T08:46:12.953Z,23.50
2022-08-03T08:48:51.078Z,23.50
2022-08-03T08:51:19.945Z,23.50
2022-08-03T08:53:51.245Z,23.60
2022-08-03T08:56:19.997Z,23.60
2022-08-03T08:58:52.146Z,23.60
2022-08-03T09:01:20.941Z,23.60
2022-08-03T09:03:48.372Z,23.70
2022-08-03T09:06:15.338Z,23.70
2022-08-03T09:08:42.324Z,23.80
2022-08-03T09:11:09.093Z,23.70
2022-08-03T09:13:39.182Z,23.80
2022-08-03T09:16:15.476Z,23.80
2022-08-03T09:18:44.980Z,23.90
2022-08-03T09:21:33.703Z,23.90
2022-08-03T09:24:04.148Z,23.90
2022-08-03T09:26:32.129Z,23.90
2022-08-03T09:29:05.928Z,24.00
2022-08-03T09:31:37.921Z,24.00
2022-08-03T09:34:07.959Z,24.00
2022-08-03T09:36:36.397Z,24.00
2022-08-03T09:39:04.443Z,24.00
2022-08-03T09:41:31.231Z,24.10
2022-08-03T09:43:58.035Z,24.10
2022-08-03T09:46:24.859Z,24.20
2022-08-03T09:48:51.616Z,24.20
2022-08-03T09:51:33.111Z,24.20
2022-08-03T09:54:18.831Z,24.20
2022-08-03T09:56:47.700Z,24.20
2022-08-03T09:59:24.609Z,24.30
2022-08-03T10:01:53.254Z,24.30
2022-08-03T10:04:22.874Z,24.40
2022-08-03T10:07:05.656Z,24.40
2022-08-03T10:09:32.674Z,24.40
2022-08-03T10:12:08.555Z,24.40
2022-08-03T10:14:37.890Z,24.40
2022-08-03T10:17:04.757Z,24.50
2022-08-03T10:19:31.574Z,24.50
2022-08-03T10:22:06.805Z,24.50
2022-08-03T10:24:35.795Z,24.50
2022-08-03T10:27:05.528Z,24.60
2022-08-03T10:29:37.591Z,24.60
2022-08-03T10:32:10.422Z,24.60
2022-08-03T10:34:44.398Z,24.60
2022-08-03T10:37:15.776Z,24.70
2022-08-03T10:39:44.789Z,24.70
2022-08-03T10:42:14.605Z,24.70
2022-08-03T10:44:42.509Z,24.80
2022-08-03T10:47:10.299Z,24.80
2022-08-03T10:49:38.119Z,24.80
2022-08-03T10:52:12.924Z,24.80
2022-08-03T10:54:43.811Z,24.80
2022-08-03T10:57:45.089Z,24.90
2022-08-03T11:00:14.728Z,24.90
2022-08-03T11:03:04.748Z,24.90
2022-08-03T11:05:33.497Z,25.00
2022-08-03T11:08:24.215Z,25.00
2022-08-03T11:10:54.949Z,25.00
2022-08-03T11:13:24.057Z,25.10
2022-08-03T11:16:00.033Z,25.10
2022-08-03T11:18:28.537Z,25.10
2022-08-03T11:20:56.867Z,25.10
2022-08-03T11:24:04.631Z,25.10
2022-08-03T11:26:30.902Z,25.20
2022-08-03T11:29:27.218Z,25.20
2022-08-03T11:31:53.955Z,25.30
2022-08-03T11:34:20.764Z,25.30
2022-08-03T11:37:19.989Z,25.30
2022-08-03T11:39:49.779Z,25.30
2022-08-03T11:42:40.633Z,25.30
2022-08-03T11:45:08.978Z,25.40
2022-08-03T11:47:50.542Z,25.40
2022-08-03T11:50:18.418Z,25.40
2022-08-03T11:52:45.456Z,25.40
2022-08-03T11:55:19.651Z,25.50
2022-08-03T11:59:13.190Z,25.50
2022-08-03T12:00:35.062Z,25.50
2022-08-03T12:03:05.117Z,25.50
2022-08-03T12:05:51.989Z,25.50
2022-08-03T12:08:31.109Z,25.50
2022-08-03T12:11:00.149Z,25.60
2022-08-03T12:14:30.094Z,25.60
2022-08-03T12:16:25.538Z,25.70
2022-08-03T12:18:56.043Z,25.70
2022-08-03T12:21:22.846Z,25.70
2022-08-03T12:23:49.657Z,25.70
2022-08-03T12:26:16.596Z,25.70
2022-08-03T12:28:50.087Z,25.70
2022-08-03T12:31:17.102Z,25.80
2022-08-03T12:34:01.570Z,25.70
2022-08-03T12:36:29.621Z,25.80
2022-08-03T12:38:57.930Z,25.80
2022-08-03T12:41:30.020Z,25.90
2022-08-03T12:43:58.695Z,25.90
2022-08-03T12:46:30.858Z,25.90
2022-08-03T12:49:06.776Z,25.90
2022-08-03T12:51:35.436Z,25.90
2022-08-03T12:54:02.819Z,25.90
2022-08-03T12:56:29.603Z,25.90
2022-08-03T12:58:57.702Z,26.00
2022-08-03T13:01:25.274Z,26.00
2022-08-03T13:03:53.264Z,26.00
2022-08-03T13:06:21.777Z,26.00
2022-08-03T13:08:48.959Z,26.00
2022-08-03T13:11:20.214Z,26.00
2022-08-03T13:13:47.010Z,26.00
2022-08-03T13:16:19.142Z,26.10
2022-08-03T13:18:46.267Z,26.20
2022-08-03T13:21:15.428Z,26.10
2022-08-03T13:23:43.000Z,26.10
2022-08-03T13:26:10.078Z,26.20
2022-08-03T13:28:36.853Z,26.10
2022-08-03T13:31:04.528Z,26.20
2022-08-03T13:33:35.396Z,26.20
2022-08-03T13:36:02.140Z,26.20
2022-08-03T13:38:28.973Z,26.10
2022-08-03T13:40:55.959Z,26.20
2022-08-03T13:43:22.712Z,26.20
2022-08-03T13:45:53.545Z,26.30
2022-08-03T13:48:36.735Z,26.20
2022-08-03T13:51:21.746Z,26.30
2022-08-03T13:53:49.111Z,26.30
2022-08-03T13:56:15.865Z,26.30
2022-08-03T13:58:42.655Z,26.30
2022-08-03T14:01:09.624Z,26.30
2022-08-03T14:03:36.506Z,26.40
2022-08-03T14:06:03.365Z,26.40
2022-08-03T14:08:31.463Z,26.40
2022-08-03T14:10:58.593Z,26.40
2022-08-03T14:13:26.192Z,26.40
2022-08-03T14:15:52.965Z,26.40
2022-08-03T14:18:29.093Z,26.40
2022-08-03T14:21:05.860Z,26.50
2022-08-03T14:23:35.855Z,26.50
2022-08-03T14:26:03.207Z,26.50
2022-08-03T14:28:30.027Z,26.60
2022-08-03T14:30:56.795Z,26.60
2022-08-03T14:33:23.932Z,26.60
2022-08-03T14:35:51.960Z,26.60
2022-08-03T14:38:18.817Z,26.60
2022-08-03T14:40:47.743Z,26.60
2022-08-03T14:43:15.027Z,26.60
2022-08-03T14:45:41.850Z,26.70
2022-08-03T14:50:31.790Z,26.70
2022-08-03T14:50:55.464Z,26.70
2022-08-03T14:53:22.966Z,26.70
2022-08-03T14:55:52.070Z,26.70
2022-08-03T14:58:21.277Z,26.80
2022-08-03T15:00:49.600Z,26.80
2022-08-03T15:03:17.037Z,26.80
2022-08-03T15:05:44.391Z,26.90
2022-08-03T15:08:11.394Z,26.90
2022-08-03T15:10:43.863Z,27.00
2022-08-03T15:13:12.905Z,27.00
2022-08-03T15:15:39.785Z,27.00
2022-08-03T15:18:06.595Z,27.00
2022-08-03T15:20:43.882Z,27.10
2022-08-03T15:23:12.369Z,27.10
2022-08-03T15:26:31.582Z,27.10
2022-08-03T15:28:27.281Z,27.20
2022-08-03T15:30:54.282Z,27.20
2022-08-03T15:33:21.134Z,27.30
2022-08-03T15:35:48.035Z,27.30
2022-08-03T15:38:15.982Z,27.30
2022-08-03T15:40:42.772Z,27.40
2022-08-03T15:43:09.577Z,27.40
2022-08-03T15:45:37.763Z,27.40
2022-08-03T15:48:05.241Z,27.40
2022-08-03T15:50:32.062Z,27.50
2022-08-03T15:52:58.889Z,27.50
2022-08-03T15:55:25.867Z,27.50
2022-08-03T15:59:09.240Z,27.60
2022-08-03T16:00:42.081Z,27.60
2022-08-03T16:03:09.203Z,27.60
2022-08-03T16:05:36.311Z,27.60
2022-08-03T16:08:05.054Z,27.60
2022-08-03T16:10:33.865Z,27.60
2022-08-03T16:13:00.699Z,27.60
2022-08-03T16:15:27.909Z,27.70
2022-08-03T16:17:56.038Z,27.60
2022-08-03T16:20:31.463Z,27.60
2022-08-03T16:23:10.702Z,27.60
2022-08-03T16:25:38.882Z,27.60
2022-08-03T16:28:13.131Z,27.60
2022-08-03T16:30:42.984Z,27.60
2022-08-03T16:33:16.987Z,27.50
2022-08-03T16:35:44.377Z,27.50
2022-08-03T16:38:16.759Z,27.50
2022-08-03T16:40:45.552Z,27.50
2022-08-03T16:43:18.366Z,27.50
2022-08-03T16:45:46.167Z,27.50
2022-08-03T16:48:14.643Z,27.40
2022-08-03T16:50:41.487Z,27.50
2022-08-03T16:53:09.707Z,27.40
2022-08-03T16:55:48.854Z,27.40
2022-08-03T16:58:34.559Z,27.50
2022-08-03T17:01:22.625Z,27.40
2022-08-03T17:04:01.343Z,27.40
2022-08-03T17:06:34.887Z,27.40
2022-08-03T17:09:03.823Z,27.40
2022-08-03T17:11:37.093Z,27.40
2022-08-03T17:14:09.198Z,27.40
2022-08-03T17:16:38.573Z,27.40
2022-08-03T17:19:07.690Z,27.40
2022-08-03T17:21:36.600Z,27.40
2022-08-03T17:24:12.252Z,27.40
2022-08-03T17:26:43.441Z,27.40
2022-08-03T17:29:13.723Z,27.40
2022-08-03T17:31:48.535Z,27.40
2022-08-03T17:34:18.043Z,27.30
2022-08-03T17:37:04.047Z,27.30
2022-08-03T17:39:57.127Z,27.40
2022-08-03T17:42:33.075Z,27.30
2022-08-03T17:45:03.957Z,27.30
2022-08-03T17:47:41.987Z,27.30
2022-08-03T17:50:25.077Z,27.30
2022-08-03T17:53:00.921Z,27.30
2022-08-03T17:55:58.552Z,27.30
2022-08-03T17:58:25.206Z,27.30
2022-08-03T18:00:59.678Z,27.30
2022-08-03T18:03:57.972Z,27.30
2022-08-03T18:06:29.597Z,27.30
2022-08-03T18:08:59.972Z,27.30
2022-08-03T18:11:35.841Z,27.30
2022-08-03T18:14:16.009Z,27.30
2022-08-03T18:16:45.491Z,27.30
2022-08-03T18:19:13.655Z,27.20
2022-08-03T18:22:02.858Z,27.30
2022-08-03T18:24:31.257Z,27.20
2022-08-03T18:27:00.176Z,27.30
2022-08-03T18:29:30.894Z,27.20
2022-08-03T18:32:03.811Z,27.20
2022-08-03T18:34:34.369Z,27.20
2022-08-03T18:37:07.445Z,27.20
2022-08-03T18:39:49.375Z,27.20
2022-08-03T18:42:19.355Z,27.20
2022-08-03T18:44:53.820Z,27.20
2022-08-03T18:47:52.686Z,27.20
2022-08-03T18:50:28.159Z,27.10
2022-08-03T18:53:03.545Z,27.10
2022-08-03T18:55:32.917Z,27.10
2022-08-03T18:58:15.722Z,27.10
2022-08-03T19:00:54.598Z,27.10
2022-08-03T19:03:25.305Z,27.00
2022-08-03T19:06:19.764Z,27.00
2022-08-03T19:08:54.147Z,27.00
2022-08-03T19:11:28.063Z,27.00
2022-08-03T19:13:58.741Z,26.90
2022-08-03T19:16:32.213Z,26.90
2022-08-03T19:19:01.390Z,26.90
2022-08-03T19:21:29.562Z,26.80
2022-08-03T19:24:00.388Z,26.80
2022-08-03T19:26:30.210Z,26.70
2022-08-03T19:28:59.081Z,26.70
2022-08-03T19:31:31.234Z,26.70
2022-08-03T19:34:03.353Z,26.60
2022-08-03T19:36:30.132Z,26.60
2022-08-03T19:38:59.407Z,26.60
2022-08-03T19:41:42.196Z,26.60
2022-08-03T19:44:13.143Z,26.50
2022-08-03T19:46:52.222Z,26.50
2022-08-03T19:49:20.666Z,26.40
2022-08-03T19:52:01.744Z,26.40
2022-08-03T19:54:36.802Z,26.40
2022-08-03T19:57:17.956Z,26.30
2022-08-03T19:59:49.984Z,26.30
2022-08-03T20:02:26.801Z,26.30
2022-08-03T20:04:55.436Z,26.20
2022-08-03T20:07:23.757Z,26.10
2022-08-03T20:09:54.546Z,26.10
2022-08-03T20:12:26.391Z,26.00
2022-08-03T20:14:55.871Z,26.00
2022-08-03T20:17:23.277Z,26.00
2022-08-03T20:20:10.334Z,25.90
2022-08-03T20:22:41.857Z,25.90
2022-08-03T20:25:12.656Z,25.80
2022-08-03T20:28:06.829Z,25.80
2022-08-03T20:30:32.885Z,25.70
2022-08-03T20:32:59.730Z,25.80
2022-08-03T20:35:26.589Z,25.70
2022-08-03T20:37:54.182Z,25.70
2022-08-03T20:40:23.279Z,25.60
2022-08-03T20:42:54.538Z,25.60
2022-08-03T20:45:58.466Z,25.50
2022-08-03T20:48:10.086Z,25.50
2022-08-03T20:50:38.032Z,25.50
2022-08-03T20:53:06.116Z,25.40
2022-08-03T20:55:47.563Z,25.40
2022-08-03T21:01:09.209Z,25.30
2022-08-03T21:03:40.904Z,25.30
2022-08-03T21:06:27.542Z,25.20
2022-08-03T21:09:00.178Z,25.20
2022-08-03T21:11:41.454Z,25.20
2022-08-03T21:13:07.827Z,25.30
2022-08-03T21:14:15.872Z,25.10
2022-08-03T21:16:44.823Z,25.10
2022-08-03T21:19:12.868Z,25.10
2022-08-03T21:21:40.929Z,25.00
2022-08-03T21:24:12.263Z,25.10
2022-08-03T21:26:41.169Z,25.10
2022-08-03T21:29:08.056Z,25.00
2022-08-03T21:31:35.558Z,24.90
2022-08-03T21:34:04.739Z,24.90
2022-08-03T21:36:33.735Z,24.80
2022-08-03T21:39:01.951Z,24.70
2022-08-03T21:41:31.641Z,24.70
2022-08-03T21:44:01.606Z,24.70
2022-08-03T21:46:32.963Z,24.70
2022-08-03T21:50:07.810Z,24.70
2022-08-03T21:51:52.180Z,24.70
2022-08-03T21:54:20.816Z,24.70
2022-08-03T21:56:50.878Z,24.70
2022-08-03T21:59:20.131Z,24.70
2022-08-03T22:05:16.428Z,24.70
2022-08-03T22:07:43.826Z,24.60
2022-08-03T22:10:11.598Z,24.50
2022-08-03T22:12:39.306Z,24.50
2022-08-03T22:15:10.956Z,24.50
2022-08-03T22:17:55.916Z,24.40
2022-08-03T22:20:23.949Z,24.40
2022-08-03T22:22:55.119Z,24.40
2022-08-03T22:25:26.026Z,24.40
2022-08-03T22:27:53.993Z,24.40
2022-08-03T22:30:22.259Z,24.40
2022-08-03T22:32:51.778Z,24.40
2022-08-03T22:35:21.015Z,24.40
2022-08-03T22:37:52.165Z,24.30
2022-08-03T22:40:19.511Z,24.20
2022-08-03T22:42:46.642Z,24.20
2022-08-03T22:46:07.736Z,24.20
2022-08-03T22:48:02.018Z,24.30
2022-08-03T22:50:32.266Z,24.20
2022-08-03T22:53:01.223Z,24.20
2022-08-03T22:55:28.201Z,24.10
2022-08-03T22:57:55.906Z,24.10
2022-08-03T23:00:24.220Z,24.00
2022-08-03T23:02:53.320Z,24.00
2022-08-03T23:06:01.779Z,24.00
2022-08-03T23:08:14.644Z,24.00
2022-08-03T23:10:46.700Z,24.10
2022-08-03T23:13:15.909Z,24.00
2022-08-03T23:15:46.754Z,24.10
2022-08-03T23:18:13.595Z,23.90
2022-08-03T23:20:42.595Z,23.90
2022-08-03T23:23:11.644Z,23.90
2022-08-03T23:25:41.535Z,23.90
2022-08-03T23:28:09.160Z,23.90
2022-08-03T23:30:37.942Z,23.90
2022-08-03T23:33:06.441Z,23.80
2022-08-03T23:36:28.420Z,23.70
2022-08-03T23:38:23.648Z,23.70
2022-08-03T23:40:51.521Z,23.80
2022-08-03T23:43:44.955Z,23.70
2022-08-03T23:46:08.638Z,23.70
2022-08-03T23:48:35.685Z,23.80
2022-08-03T23:51:06.944Z,23.70
2022-08-03T23:53:41.351Z,23.60
2022-08-03T23:56:19.118Z,23.60
2022-08-03T23:59:02.628Z,23.60
